sensor_id;sensor_type;location;lat;lon;timestamp;P1;durP1;ratioP1;P2;durP2;ratioP2
3225;SDS011;1625;49.884;8.666;2023-02-28T00:00:47;2.97;;;2.67;;
3225;SDS011;1625;49.884;8.666;2023-02-28T00:03:13;3.03;;;2.83;;
3225;SDS011;1625;49.884;8.666;2023-02-28T00:05:40;3.80;;;3.10;;
3225;SDS011;1625;49.884;8.666;2023-02-28T00:08:27;3.60;;;2.80;;
3225;SDS011;1625;49.884;8.666;2023-02-28T00:11:36;3.70;;;2.60;;
3225;SDS011;1625;49.884;8.666;2023-02-28T00:20:08;3.40;;;3.10;;
3225;SDS011;1625;49.884;8.666;2023-02-28T00:22:39;3.00;;;2.70;;
3225;SDS011;1625;49.884;8.666;2023-02-28T00:25:08;3.07;;;2.77;;
3225;SDS011;1625;49.884;8.666;2023-02-28T00:27:39;2.90;;;2.60;;
3225;SDS011;1625;49.884;8.666;2023-02-28T00:30:12;3.73;;;2.87;;
3225;SDS011;1625;49.884;8.666;2023-02-28T00:32:45;3.03;;;2.70;;
3225;SDS011;1625;49.884;8.666;2023-02-28T00:35:25;3.93;;;3.17;;
3225;SDS011;1625;49.884;8.666;2023-02-28T00:37:51;2.77;;;2.57;;
3225;SDS011;1625;49.884;8.666;2023-02-28T00:40:37;3.60;;;3.03;;
3225;SDS011;1625;49.884;8.666;2023-02-28T01:07:08;3.80;;;3.07;;
3225;SDS011;1625;49.884;8.666;2023-02-28T01:09:34;2.73;;;2.40;;
3225;SDS011;1625;49.884;8.666;2023-02-28T01:12:00;2.90;;;2.70;;
3225;SDS011;1625;49.884;8.666;2023-02-28T01:19:37;4.10;;;2.67;;
3225;SDS011;1625;49.884;8.666;2023-02-28T01:22:10;3.00;;;2.70;;
3225;SDS011;1625;49.884;8.666;2023-02-28T01:24:37;2.70;;;2.50;;
3225;SDS011;1625;49.884;8.666;2023-02-28T01:27:04;2.70;;;2.50;;
3225;SDS011;1625;49.884;8.666;2023-02-28T01:29:32;3.63;;;2.90;;
3225;SDS011;1625;49.884;8.666;2023-02-28T01:33:00;3.53;;;3.00;;
3225;SDS011;1625;49.884;8.666;2023-02-28T01:39:56;2.97;;;2.77;;
3225;SDS011;1625;49.884;8.666;2023-02-28T01:43:25;2.83;;;2.63;;
3225;SDS011;1625;49.884;8.666;2023-02-28T01:56:49;3.93;;;3.43;;
3225;SDS011;1625;49.884;8.666;2023-02-28T01:59:31;4.63;;;4.20;;
3225;SDS011;1625;49.884;8.666;2023-02-28T02:02:16;5.10;;;3.77;;
3225;SDS011;1625;49.884;8.666;2023-02-28T05:27:01;6.10;;;5.60;;
3225;SDS011;1625;49.884;8.666;2023-02-28T05:33:15;5.77;;;5.37;;
3225;SDS011;1625;49.884;8.666;2023-02-28T05:40:01;5.87;;;5.37;;
3225;SDS011;1625;49.884;8.666;2023-02-28T05:42:49;6.07;;;5.67;;
3225;SDS011;1625;49.884;8.666;2023-02-28T05:46:04;6.30;;;5.90;;
3225;SDS011;1625;49.884;8.666;2023-02-28T05:48:47;6.10;;;5.60;;
3225;SDS011;1625;49.884;8.666;2023-02-28T05:54:11;5.83;;;5.23;;
3225;SDS011;1625;49.884;8.666;2023-02-28T05:56:37;6.97;;;6.10;;
3225;SDS011;1625;49.884;8.666;2023-02-28T05:59:04;5.83;;;5.43;;
3225;SDS011;1625;49.884;8.666;2023-02-28T06:01:32;5.90;;;5.43;;
3225;SDS011;1625;49.884;8.666;2023-02-28T06:04:07;5.10;;;4.80;;
3225;SDS011;1625;49.884;8.666;2023-02-28T07:21:39;5.27;;;4.87;;
3225;SDS011;1625;49.884;8.666;2023-02-28T07:24:07;5.27;;;4.87;;
3225;SDS011;1625;49.884;8.666;2023-02-28T07:26:33;5.57;;;5.17;;
3225;SDS011;1625;49.884;8.666;2023-02-28T07:29:01;4.80;;;4.40;;
3225;SDS011;1625;49.884;8.666;2023-02-28T07:31:27;5.77;;;5.37;;
3225;SDS011;1625;49.884;8.666;2023-02-28T07:33:53;5.40;;;5.00;;
3225;SDS011;1625;49.884;8.666;2023-02-28T07:36:19;5.37;;;4.87;;
3225;SDS011;1625;49.884;8.666;2023-02-28T10:14:33;5.60;;;5.10;;
3225;SDS011;1625;49.884;8.666;2023-02-28T10:17:05;6.43;;;5.77;;
3225;SDS011;1625;49.884;8.666;2023-02-28T10:19:47;5.50;;;5.00;;
3225;SDS011;1625;49.884;8.666;2023-02-28T10:25:17;6.33;;;4.97;;
3225;SDS011;1625;49.884;8.666;2023-02-28T10:27:57;6.90;;;5.57;;
3225;SDS011;1625;49.884;8.666;2023-02-28T10:31:00;6.50;;;5.07;;
3225;SDS011;1625;49.884;8.666;2023-02-28T10:33:31;5.33;;;4.83;;
3225;SDS011;1625;49.884;8.666;2023-02-28T10:35:59;6.30;;;4.97;;
3225;SDS011;1625;49.884;8.666;2023-02-28T10:38:37;6.10;;;5.50;;
3225;SDS011;1625;49.884;8.666;2023-02-28T10:41:08;5.97;;;5.20;;
3225;SDS011;1625;49.884;8.666;2023-02-28T10:43:35;6.30;;;5.70;;
3225;SDS011;1625;49.884;8.666;2023-02-28T10:46:04;6.30;;;5.73;;
3225;SDS011;1625;49.884;8.666;2023-02-28T10:51:11;7.07;;;5.60;;
3225;SDS011;1625;49.884;8.666;2023-02-28T10:54:01;6.40;;;5.60;;
3225;SDS011;1625;49.884;8.666;2023-02-28T10:56:28;6.07;;;5.57;;
3225;SDS011;1625;49.884;8.666;2023-02-28T11:01:53;6.87;;;6.27;;
3225;SDS011;1625;49.884;8.666;2023-02-28T11:06:47;6.30;;;5.70;;
3225;SDS011;1625;49.884;8.666;2023-02-28T11:09:34;5.40;;;4.90;;
3225;SDS011;1625;49.884;8.666;2023-02-28T11:12:05;5.93;;;5.07;;
3225;SDS011;1625;49.884;8.666;2023-02-28T11:14:35;5.63;;;5.13;;
3225;SDS011;1625;49.884;8.666;2023-02-28T11:17:22;5.90;;;5.40;;
3225;SDS011;1625;49.884;8.666;2023-02-28T11:19:51;5.50;;;5.00;;
3225;SDS011;1625;49.884;8.666;2023-02-28T11:22:23;6.57;;;5.87;;
3225;SDS011;1625;49.884;8.666;2023-02-28T11:24:56;6.30;;;5.80;;
3225;SDS011;1625;49.884;8.666;2023-02-28T11:30:02;5.93;;;5.37;;
3225;SDS011;1625;49.884;8.666;2023-02-28T11:32:35;6.20;;;5.67;;
3225;SDS011;1625;49.884;8.666;2023-02-28T11:35:02;5.40;;;4.90;;
3225;SDS011;1625;49.884;8.666;2023-02-28T11:37:36;6.40;;;5.77;;
3225;SDS011;1625;49.884;8.666;2023-02-28T11:40:05;6.20;;;5.53;;
3225;SDS011;1625;49.884;8.666;2023-02-28T11:43:00;7.10;;;6.40;;
3225;SDS011;1625;49.884;8.666;2023-02-28T11:56:00;5.93;;;5.33;;
3225;SDS011;1625;49.884;8.666;2023-02-28T12:02:18;5.50;;;5.00;;
3225;SDS011;1625;49.884;8.666;2023-02-28T12:04:53;6.40;;;5.90;;
3225;SDS011;1625;49.884;8.666;2023-02-28T12:07:25;6.30;;;5.70;;
3225;SDS011;1625;49.884;8.666;2023-02-28T12:18:50;6.77;;;5.97;;
3225;SDS011;1625;49.884;8.666;2023-02-28T12:26:52;5.43;;;4.93;;
3225;SDS011;1625;49.884;8.666;2023-02-28T12:29:23;6.50;;;5.80;;
3225;SDS011;1625;49.884;8.666;2023-02-28T12:37:59;7.43;;;6.73;;
3225;SDS011;1625;49.884;8.666;2023-02-28T12:40:40;6.60;;;6.00;;
3225;SDS011;1625;49.884;8.666;2023-02-28T12:43:14;7.93;;;7.13;;
3225;SDS011;1625;49.884;8.666;2023-02-28T12:46:02;7.00;;;6.40;;
3225;SDS011;1625;49.884;8.666;2023-02-28T12:48:39;7.40;;;6.57;;
3225;SDS011;1625;49.884;8.666;2023-02-28T12:51:10;8.57;;;6.77;;
3225;SDS011;1625;49.884;8.666;2023-02-28T12:56:19;5.90;;;5.40;;
3225;SDS011;1625;49.884;8.666;2023-02-28T12:58:59;7.60;;;6.40;;
3225;SDS011;1625;49.884;8.666;2023-02-28T13:01:39;6.47;;;5.87;;
3225;SDS011;1625;49.884;8.666;2023-02-28T13:09:38;8.60;;;7.70;;
3225;SDS011;1625;49.884;8.666;2023-02-28T13:12:14;7.60;;;6.90;;
3225;SDS011;1625;49.884;8.666;2023-02-28T13:14:41;9.53;;;6.50;;
3225;SDS011;1625;49.884;8.666;2023-02-28T13:19:34;6.87;;;6.27;;
3225;SDS011;1625;49.884;8.666;2023-02-28T13:22:03;7.03;;;6.33;;
3225;SDS011;1625;49.884;8.666;2023-02-28T13:34:34;7.17;;;6.40;;
3225;SDS011;1625;49.884;8.666;2023-02-28T13:39:55;6.93;;;6.20;;
3225;SDS011;1625;49.884;8.666;2023-02-28T13:42:35;7.07;;;6.40;;
3225;SDS011;1625;49.884;8.666;2023-02-28T13:50:52;7.57;;;6.88;;
3225;SDS011;1625;49.884;8.666;2023-02-28T13:53:34;8.17;;;7.50;;
3225;SDS011;1625;49.884;8.666;2023-02-28T13:56:35;8.30;;;7.60;;
3225;SDS011;1625;49.884;8.666;2023-02-28T13:59:18;8.10;;;7.37;;
3225;SDS011;1625;49.884;8.666;2023-02-28T14:02:30;7.90;;;7.10;;
3225;SDS011;1625;49.884;8.666;2023-02-28T14:05:14;7.70;;;6.90;;
3225;SDS011;1625;49.884;8.666;2023-02-28T14:07:50;7.30;;;6.60;;
3225;SDS011;1625;49.884;8.666;2023-02-28T14:10:30;7.77;;;6.97;;
3225;SDS011;1625;49.884;8.666;2023-02-28T14:13:01;6.77;;;5.90;;
3225;SDS011;1625;49.884;8.666;2023-02-28T14:15:48;8.27;;;6.13;;
3225;SDS011;1625;49.884;8.666;2023-02-28T14:18:25;7.63;;;6.90;;
3225;SDS011;1625;49.884;8.666;2023-02-28T14:21:09;7.77;;;6.97;;
3225;SDS011;1625;49.884;8.666;2023-02-28T14:32:32;7.37;;;6.67;;
3225;SDS011;1625;49.884;8.666;2023-02-28T14:35:14;7.27;;;6.57;;
3225;SDS011;1625;49.884;8.666;2023-02-28T14:37:51;7.40;;;6.80;;
3225;SDS011;1625;49.884;8.666;2023-02-28T14:40:25;7.80;;;7.00;;
3225;SDS011;1625;49.884;8.666;2023-02-28T14:42:55;7.73;;;7.03;;
3225;SDS011;1625;49.884;8.666;2023-02-28T14:45:24;7.30;;;6.70;;
3225;SDS011;1625;49.884;8.666;2023-02-28T14:47:52;7.80;;;7.10;;
3225;SDS011;1625;49.884;8.666;2023-02-28T14:50:18;7.10;;;6.30;;
3225;SDS011;1625;49.884;8.666;2023-02-28T14:52:46;7.27;;;6.40;;
3225;SDS011;1625;49.884;8.666;2023-02-28T14:55:16;7.13;;;6.53;;
3225;SDS011;1625;49.884;8.666;2023-02-28T14:57:51;7.27;;;6.67;;
3225;SDS011;1625;49.884;8.666;2023-02-28T15:02:58;8.00;;;7.30;;
3225;SDS011;1625;49.884;8.666;2023-02-28T15:06:06;6.83;;;6.23;;
3225;SDS011;1625;49.884;8.666;2023-02-28T15:08:39;6.87;;;6.27;;
3225;SDS011;1625;49.884;8.666;2023-02-28T15:11:12;7.90;;;7.20;;
3225;SDS011;1625;49.884;8.666;2023-02-28T15:13:53;8.50;;;7.70;;
3225;SDS011;1625;49.884;8.666;2023-02-28T15:16:28;7.77;;;7.07;;
3225;SDS011;1625;49.884;8.666;2023-02-28T15:19:23;6.80;;;6.13;;
3225;SDS011;1625;49.884;8.666;2023-02-28T15:22:00;7.50;;;6.90;;
3225;SDS011;1625;49.884;8.666;2023-02-28T15:24:46;8.13;;;7.43;;
3225;SDS011;1625;49.884;8.666;2023-02-28T15:27:16;8.60;;;7.80;;
3225;SDS011;1625;49.884;8.666;2023-02-28T15:29:50;6.80;;;6.30;;
3225;SDS011;1625;49.884;8.666;2023-02-28T15:32:29;7.47;;;6.87;;
3225;SDS011;1625;49.884;8.666;2023-02-28T15:34:59;7.50;;;6.80;;
3225;SDS011;1625;49.884;8.666;2023-02-28T15:37:56;6.90;;;6.30;;
3225;SDS011;1625;49.884;8.666;2023-02-28T15:40:30;8.97;;;8.17;;
3225;SDS011;1625;49.884;8.666;2023-02-28T15:43:14;7.93;;;7.07;;
3225;SDS011;1625;49.884;8.666;2023-02-28T15:50:46;7.50;;;6.80;;
3225;SDS011;1625;49.884;8.666;2023-02-28T15:53:19;8.30;;;7.60;;
3225;SDS011;1625;49.884;8.666;2023-02-28T15:55:52;7.10;;;6.50;;
3225;SDS011;1625;49.884;8.666;2023-02-28T15:58:23;7.90;;;7.30;;
3225;SDS011;1625;49.884;8.666;2023-02-28T16:01:07;8.13;;;7.33;;
3225;SDS011;1625;49.884;8.666;2023-02-28T16:03:55;6.97;;;6.37;;
3225;SDS011;1625;49.884;8.666;2023-02-28T16:08:52;7.13;;;6.43;;
3225;SDS011;1625;49.884;8.666;2023-02-28T16:11:18;6.90;;;6.40;;
3225;SDS011;1625;49.884;8.666;2023-02-28T16:13:45;7.80;;;7.10;;
3225;SDS011;1625;49.884;8.666;2023-02-28T16:16:21;7.80;;;7.10;;
3225;SDS011;1625;49.884;8.666;2023-02-28T16:20:00;7.83;;;7.13;;
3225;SDS011;1625;49.884;8.666;2023-02-28T16:22:32;7.60;;;7.00;;
3225;SDS011;1625;49.884;8.666;2023-02-28T16:28:25;7.37;;;6.77;;
3225;SDS011;1625;49.884;8.666;2023-02-28T16:30:56;6.73;;;6.17;;
3225;SDS011;1625;49.884;8.666;2023-02-28T16:33:21;7.40;;;6.80;;
3225;SDS011;1625;49.884;8.666;2023-02-28T16:35:49;7.47;;;6.77;;
3225;SDS011;1625;49.884;8.666;2023-02-28T16:38:14;7.50;;;6.73;;
3225;SDS011;1625;49.884;8.666;2023-02-28T16:40:40;7.20;;;6.60;;
3225;SDS011;1625;49.884;8.666;2023-02-28T16:43:11;7.40;;;6.80;;
3225;SDS011;1625;49.884;8.666;2023-02-28T16:45:42;8.10;;;7.40;;
3225;SDS011;1625;49.884;8.666;2023-02-28T16:48:11;8.40;;;7.50;;
3225;SDS011;1625;49.884;8.666;2023-02-28T16:50:41;7.17;;;6.50;;
3225;SDS011;1625;49.884;8.666;2023-02-28T16:53:08;7.83;;;7.07;;
3225;SDS011;1625;49.884;8.666;2023-02-28T16:55:35;7.40;;;6.73;;
3225;SDS011;1625;49.884;8.666;2023-02-28T16:58:02;8.03;;;7.43;;
3225;SDS011;1625;49.884;8.666;2023-02-28T17:00:28;8.40;;;7.70;;
3225;SDS011;1625;49.884;8.666;2023-02-28T17:02:56;9.37;;;8.47;;
3225;SDS011;1625;49.884;8.666;2023-02-28T17:05:25;8.37;;;7.57;;
3225;SDS011;1625;49.884;8.666;2023-02-28T17:07:53;8.67;;;7.60;;
3225;SDS011;1625;49.884;8.666;2023-02-28T17:10:20;8.33;;;7.63;;
3225;SDS011;1625;49.884;8.666;2023-02-28T17:12:47;8.00;;;7.30;;
3225;SDS011;1625;49.884;8.666;2023-02-28T17:15:14;7.70;;;7.00;;
3225;SDS011;1625;49.884;8.666;2023-02-28T17:17:44;8.13;;;7.33;;
3225;SDS011;1625;49.884;8.666;2023-02-28T17:20:13;7.50;;;6.03;;
3225;SDS011;1625;49.884;8.666;2023-02-28T17:22:40;8.83;;;7.00;;
3225;SDS011;1625;49.884;8.666;2023-02-28T17:25:05;8.30;;;6.70;;
3225;SDS011;1625;49.884;8.666;2023-02-28T17:27:32;6.90;;;6.20;;
3225;SDS011;1625;49.884;8.666;2023-02-28T17:29:57;7.30;;;6.27;;
3225;SDS011;1625;49.884;8.666;2023-02-28T17:32:23;7.20;;;6.50;;
3225;SDS011;1625;49.884;8.666;2023-02-28T17:34:49;7.60;;;6.40;;
3225;SDS011;1625;49.884;8.666;2023-02-28T17:37:14;7.60;;;6.90;;
3225;SDS011;1625;49.884;8.666;2023-02-28T17:39:41;8.33;;;7.00;;
3225;SDS011;1625;49.884;8.666;2023-02-28T17:42:07;6.97;;;5.93;;
3225;SDS011;1625;49.884;8.666;2023-02-28T17:44:32;8.10;;;7.30;;
3225;SDS011;1625;49.884;8.666;2023-02-28T17:46:58;7.13;;;6.43;;
3225;SDS011;1625;49.884;8.666;2023-02-28T17:49:31;7.97;;;7.17;;
3225;SDS011;1625;49.884;8.666;2023-02-28T17:51:58;7.40;;;6.70;;
3225;SDS011;1625;49.884;8.666;2023-02-28T17:54:23;8.80;;;6.60;;
3225;SDS011;1625;49.884;8.666;2023-02-28T17:56:49;9.80;;;6.47;;
3225;SDS011;1625;49.884;8.666;2023-02-28T17:59:14;7.10;;;6.40;;
3225;SDS011;1625;49.884;8.666;2023-02-28T18:01:40;8.73;;;7.13;;
3225;SDS011;1625;49.884;8.666;2023-02-28T18:04:05;8.10;;;6.40;;
3225;SDS011;1625;49.884;8.666;2023-02-28T18:06:41;8.00;;;7.17;;
3225;SDS011;1625;49.884;8.666;2023-02-28T18:09:16;8.73;;;6.30;;
3225;SDS011;1625;49.884;8.666;2023-02-28T18:11:43;8.50;;;7.60;;
3225;SDS011;1625;49.884;8.666;2023-02-28T18:14:23;8.33;;;6.83;;
3225;SDS011;1625;49.884;8.666;2023-02-28T18:57:52;8.00;;;6.43;;
3225;SDS011;1625;49.884;8.666;2023-02-28T19:04:22;8.67;;;7.10;;
3225;SDS011;1625;49.884;8.666;2023-02-28T19:14:36;7.97;;;7.27;;
3225;SDS011;1625;49.884;8.666;2023-02-28T19:17:02;9.80;;;7.07;;
3225;SDS011;1625;49.884;8.666;2023-02-28T19:37:03;7.13;;;6.37;;
3225;SDS011;1625;49.884;8.666;2023-02-28T19:41:02;7.10;;;6.10;;
3225;SDS011;1625;49.884;8.666;2023-02-28T19:51:25;7.47;;;6.67;;
3225;SDS011;1625;49.884;8.666;2023-02-28T19:57:43;8.03;;;7.07;;
3225;SDS011;1625;49.884;8.666;2023-02-28T20:00:31;7.20;;;6.30;;
3225;SDS011;1625;49.884;8.666;2023-02-28T20:02:57;7.30;;;6.57;;
3225;SDS011;1625;49.884;8.666;2023-02-28T20:05:23;7.90;;;6.93;;
3225;SDS011;1625;49.884;8.666;2023-02-28T20:07:50;8.13;;;6.93;;
3225;SDS011;1625;49.884;8.666;2023-02-28T20:10:16;9.03;;;7.30;;
3225;SDS011;1625;49.884;8.666;2023-02-28T20:12:48;6.70;;;5.97;;
3225;SDS011;1625;49.884;8.666;2023-02-28T20:15:13;7.07;;;6.20;;
3225;SDS011;1625;49.884;8.666;2023-02-28T20:17:39;8.30;;;7.30;;
3225;SDS011;1625;49.884;8.666;2023-02-28T20:22:36;7.03;;;6.43;;
3225;SDS011;1625;49.884;8.666;2023-02-28T20:25:03;8.20;;;7.40;;
3225;SDS011;1625;49.884;8.666;2023-02-28T20:27:31;6.07;;;5.47;;
3225;SDS011;1625;49.884;8.666;2023-02-28T20:29:59;8.67;;;6.63;;
3225;SDS011;1625;49.884;8.666;2023-02-28T20:32:25;8.60;;;7.33;;
3225;SDS011;1625;49.884;8.666;2023-02-28T20:34:51;8.20;;;7.40;;
3225;SDS011;1625;49.884;8.666;2023-02-28T20:38:26;8.47;;;7.07;;
3225;SDS011;1625;49.884;8.666;2023-02-28T20:40:57;8.07;;;7.00;;
3225;SDS011;1625;49.884;8.666;2023-02-28T20:43:23;7.03;;;6.33;;
3225;SDS011;1625;49.884;8.666;2023-02-28T21:02:35;8.00;;;6.83;;
3225;SDS011;1625;49.884;8.666;2023-02-28T21:05:00;8.50;;;7.10;;
3225;SDS011;1625;49.884;8.666;2023-02-28T21:07:27;8.67;;;7.87;;
3225;SDS011;1625;49.884;8.666;2023-02-28T21:09:53;8.53;;;7.40;;
3225;SDS011;1625;49.884;8.666;2023-02-28T21:12:20;9.00;;;7.93;;
3225;SDS011;1625;49.884;8.666;2023-02-28T21:14:49;10.20;;;8.10;;
3225;SDS011;1625;49.884;8.666;2023-02-28T21:17:14;9.10;;;8.10;;
3225;SDS011;1625;49.884;8.666;2023-02-28T21:19:40;8.13;;;7.30;;
3225;SDS011;1625;49.884;8.666;2023-02-28T21:22:05;11.13;;;7.90;;
3225;SDS011;1625;49.884;8.666;2023-02-28T21:24:31;9.53;;;7.73;;
3225;SDS011;1625;49.884;8.666;2023-02-28T21:26:56;8.93;;;7.60;;
3225;SDS011;1625;49.884;8.666;2023-02-28T21:29:23;9.33;;;7.50;;
3225;SDS011;1625;49.884;8.666;2023-02-28T21:31:49;9.43;;;8.53;;
3225;SDS011;1625;49.884;8.666;2023-02-28T21:34:16;11.53;;;8.67;;
3225;SDS011;1625;49.884;8.666;2023-02-28T21:36:42;10.30;;;9.20;;
3225;SDS011;1625;49.884;8.666;2023-02-28T21:39:13;10.97;;;9.03;;
3225;SDS011;1625;49.884;8.666;2023-02-28T21:41:41;10.17;;;8.93;;
3225;SDS011;1625;49.884;8.666;2023-02-28T21:44:07;12.80;;;8.27;;
3225;SDS011;1625;49.884;8.666;2023-02-28T21:46:33;10.03;;;7.90;;
3225;SDS011;1625;49.884;8.666;2023-02-28T21:48:59;9.27;;;8.10;;
3225;SDS011;1625;49.884;8.666;2023-02-28T21:51:28;9.87;;;8.60;;
3225;SDS011;1625;49.884;8.666;2023-02-28T21:53:58;10.87;;;8.47;;
3225;SDS011;1625;49.884;8.666;2023-02-28T21:56:26;9.73;;;8.00;;
3225;SDS011;1625;49.884;8.666;2023-02-28T21:58:55;7.90;;;7.07;;
3225;SDS011;1625;49.884;8.666;2023-02-28T22:01:24;10.07;;;8.60;;
3225;SDS011;1625;49.884;8.666;2023-02-28T22:03:54;11.03;;;8.43;;
3225;SDS011;1625;49.884;8.666;2023-02-28T22:06:21;8.90;;;7.80;;
3225;SDS011;1625;49.884;8.666;2023-02-28T22:08:48;11.00;;;9.40;;
3225;SDS011;1625;49.884;8.666;2023-02-28T22:11:18;10.33;;;8.10;;
3225;SDS011;1625;49.884;8.666;2023-02-28T22:13:45;10.80;;;8.30;;
3225;SDS011;1625;49.884;8.666;2023-02-28T22:16:15;11.43;;;8.10;;
3225;SDS011;1625;49.884;8.666;2023-02-28T22:18:42;11.00;;;8.33;;
3225;SDS011;1625;49.884;8.666;2023-02-28T22:21:09;9.83;;;8.20;;
3225;SDS011;1625;49.884;8.666;2023-02-28T22:23:36;10.67;;;8.77;;
3225;SDS011;1625;49.884;8.666;2023-02-28T22:26:04;11.40;;;8.43;;
3225;SDS011;1625;49.884;8.666;2023-02-28T22:28:31;9.07;;;8.20;;
3225;SDS011;1625;49.884;8.666;2023-02-28T22:31:11;9.37;;;7.93;;
3225;SDS011;1625;49.884;8.666;2023-02-28T22:33:37;8.53;;;7.50;;
3225;SDS011;1625;49.884;8.666;2023-02-28T22:36:05;9.13;;;8.13;;
3225;SDS011;1625;49.884;8.666;2023-02-28T22:38:32;9.10;;;7.67;;
3225;SDS011;1625;49.884;8.666;2023-02-28T22:40:59;9.17;;;8.27;;
3225;SDS011;1625;49.884;8.666;2023-02-28T22:43:26;8.73;;;7.83;;
3225;SDS011;1625;49.884;8.666;2023-02-28T22:45:52;11.37;;;9.27;;
3225;SDS011;1625;49.884;8.666;2023-02-28T22:48:18;8.50;;;7.37;;
3225;SDS011;1625;49.884;8.666;2023-02-28T22:50:43;9.33;;;7.63;;
3225;SDS011;1625;49.884;8.666;2023-02-28T22:53:09;8.87;;;8.00;;
3225;SDS011;1625;49.884;8.666;2023-02-28T22:55:34;9.93;;;8.00;;
3225;SDS011;1625;49.884;8.666;2023-02-28T22:58:00;9.30;;;7.57;;
3225;SDS011;1625;49.884;8.666;2023-02-28T23:00:25;11.43;;;7.20;;
3225;SDS011;1625;49.884;8.666;2023-02-28T23:02:51;10.40;;;7.93;;
3225;SDS011;1625;49.884;8.666;2023-02-28T23:05:17;9.47;;;7.97;;
3225;SDS011;1625;49.884;8.666;2023-02-28T23:07:43;9.60;;;7.27;;
3225;SDS011;1625;49.884;8.666;2023-02-28T23:10:10;11.47;;;8.40;;
3225;SDS011;1625;49.884;8.666;2023-02-28T23:12:38;9.90;;;8.10;;
3225;SDS011;1625;49.884;8.666;2023-02-28T23:15:17;9.60;;;7.53;;
3225;SDS011;1625;49.884;8.666;2023-02-28T23:17:47;11.93;;;8.90;;
3225;SDS011;1625;49.884;8.666;2023-02-28T23:20:16;11.27;;;7.70;;
3225;SDS011;1625;49.884;8.666;2023-02-28T23:22:44;8.93;;;6.97;;
3225;SDS011;1625;49.884;8.666;2023-02-28T23:25:11;9.33;;;7.57;;
3225;SDS011;1625;49.884;8.666;2023-02-28T23:27:38;10.17;;;9.00;;
3225;SDS011;1625;49.884;8.666;2023-02-28T23:30:04;10.00;;;7.57;;
3225;SDS011;1625;49.884;8.666;2023-02-28T23:32:30;9.60;;;7.80;;
3225;SDS011;1625;49.884;8.666;2023-02-28T23:34:58;10.97;;;8.27;;
3225;SDS011;1625;49.884;8.666;2023-02-28T23:37:24;9.63;;;8.03;;
3225;SDS011;1625;49.884;8.666;2023-02-28T23:39:50;11.97;;;8.47;;
3225;SDS011;1625;49.884;8.666;2023-02-28T23:42:15;9.80;;;8.57;;
3225;SDS011;1625;49.884;8.666;2023-02-28T23:44:41;8.57;;;7.67;;
3225;SDS011;1625;49.884;8.666;2023-02-28T23:47:06;8.87;;;7.63;;
3225;SDS011;1625;49.884;8.666;2023-02-28T23:49:32;10.40;;;9.40;;
3225;SDS011;1625;49.884;8.666;2023-02-28T23:51:57;9.37;;;7.60;;
3225;SDS011;1625;49.884;8.666;2023-02-28T23:54:23;9.80;;;8.20;;
3225;SDS011;1625;49.884;8.666;2023-02-28T23:56:50;10.60;;;8.60;;
3225;SDS011;1625;49.884;8.666;2023-02-28T23:59:15;11.93;;;8.40;;
